• Join FlightAware (Why Join?)
  • Login
  • US Flag 
11:39AM EDT


 

Airport Tracker/Info


-or-


 

Live Flight TrackerFlight Track Log ✈ FDX1161 ✈ 29-Oct-2013 ✈ KSAT - KLRD

Flight Track Log - Related Links

Times and Time Zones

All times are in EDT time to prevent confusion due to time zone crossing. See the FDX1161 flight status page for this flight to view local times or setup timezone preferences in your user account.

Time Position Orientation Groundspeed Altitude Reporting Facility
EDT Latitude Longitude Course Direction KTS MPH feet Rate Location/Type
06:39AM 29.4970 -98.4180 135° Southeast 4,200  Level FlightAware
06:40AM 29.4672 -98.4081 164° South 253 291 6,000 4,080 Climbing FlightAware ADS-B
06:40AM 29.4492 -98.4162 201° Southwest 255 293 7,200 4,500 Climbing FlightAware ADS-B
06:40AM 29.4331 -98.4277 212° Southwest 260 299 8,500 4,560 Climbing FlightAware ADS-B
06:41AM 29.4147 -98.4399 210° Southwest 259 298 9,800 2,760 Climbing FlightAware ADS-B
06:41AM 29.3760 -98.4630 207° Southwest 274 315 10,800 1,920 Climbing FlightAware
06:42AM 29.3474 -98.4792 206° Southwest 315 362 11,500 2,880 Climbing FlightAware ADS-B
06:43AM 29.2620 -98.5260 206° Southwest 370 426 14,400 2,940 Climbing FlightAware
06:43AM 29.1860 -98.5670 205° Southwest 16,900 2,820 Climbing FlightAware
06:44AM 29.1360 -98.5950 206° Southwest 18,500 2,640 Climbing FlightAware
06:44AM 29.0668 -98.6382 209° Southwest 437 503 20,000 1,200 Climbing FlightAware ADS-B
06:45AM 29.0080 -98.6754 209° Southwest 414 476 20,000  Level FlightAware ADS-B
06:46AM 28.9470 -98.7140 209° Southwest 417 480 20,000  Level FlightAware
06:46AM 28.8830 -98.7550 209° Southwest 411 473 20,000  Level FlightAware
06:47AM 28.8300 -98.7880 209° Southwest 414 476 20,000  Level FlightAware
06:48AM 28.7610 -98.8310 209° Southwest 20,000  Level FlightAware
06:48AM 28.7070 -98.8650 209° Southwest 405 466 20,000  Level FlightAware
06:49AM 28.5930 -98.9350 208° Southwest 412 474 20,000  Level FlightAware
06:49AM 28.5730 -98.9480 210° Southwest 413 475 20,000  Level FlightAware
06:50AM 28.5144 -98.9839 210° Southwest 415 478 20,000 -180 Level Houston Center
06:51AM 28.4144 -99.0467 209° Southwest 411 473 19,700 -1,740 Descending Houston Center
06:52AM 28.3175 -99.1067 209° Southwest 400 460 16,600 -3,360 Descending Houston Center
06:53AM 28.2111 -99.1708 208° Southwest 366 421 13,000 -2,340 Descending Houston Center
06:54AM 28.1308 -99.2214 209° Southwest 337 388 12,000 -1,320 Descending Houston Center
06:55AM 28.0617 -99.2642 209° Southwest 295 339 10,400 -1,680 Descending Houston Center
06:56AM 27.9933 -99.3069 209° Southwest 285 328 8,700 -1,920 Descending Houston Center
06:57AM 27.9292 -99.3497 211° Southwest 278 320 6,600 -2,400 Descending Houston Center
06:58AM 27.8686 -99.3869 209° Southwest 266 306 4,000 -1,740 Descending Houston Center
06:59AM 27.8169 -99.4197 209° Southwest 239 275 3,200 -720 Descending Houston Center
07:00AM 27.7731 -99.4458 208° Southwest 205 236 2,600 -300 Descending Houston Center
07:01AM 27.7294 -99.4533 189° South 178 205 2,600  Level Houston Center
07:02AM 27.6861 -99.4556 183° South 164 189 2,600 -300 Level Houston Center
07:03AM 27.6439 -99.4583 183° South 157 181 2,100 -600 Descending Houston Center
07:04AM 27.6086 -99.4600 182° South 142 163 1,500 -600 Descending Houston Center
07:05AM 27.5808 -99.4606 181° South 117 135 1,000 -540 Descending Houston Center
07:06AM 27.5497 -99.4625 183° South 111 128 500 -540 Descending Houston Center